integrated web briefing

Basic information
Name Poznan-Lawica Airport
ICAO EPPO
IATA POZ
Latitude N52° 25.16'
Longitude E16° 49.35'
Runways 10/28 | 2504m x 50m
Elevation 289.0ft

Arrivals
Callsign From

Departures
Callsign To

ATC Bookings
Callsign Time [UTC]

Pilot Briefing

Metar

EPPO 180700Z 28007KT 8000 OVC007 09/08 Q1023


Runways
Runway Course Dimensions Equipment Surface
10
103° 2504m x 50m PAPI 3° CONCRETE / ASPHALT
28
283° 2504m x 50m ILS CAT I, PAPI 3° CONCRETE / ASPHALT

NAV Aids
Name Type Frequency / Course
POZ ILS CAT I 110.30 / 283°

Air Traffic Control
Callsign Name Frequency
EPPO_DEL Poznan Delivery 121.800 MHz
EPPO_TWR Poznan Tower 119.970 MHz
EPPO_S_APP Poznan Approach 127.220 MHz
EPPO_N_APP Poznan Approach 129.020 MHz
EPWW_S_CTR Warszawa Radar (bandbox) 125.450 MHz
EPWW_W_CTR Warszawa Radar 134.870 MHz